createdAt,value
2023-02-22T00:04:50.874Z,83.02
2023-02-22T00:09:52.293Z,83.51
2023-02-22T00:14:53.887Z,84.30
2023-02-22T00:19:55.326Z,83.46
2023-02-22T00:24:57.605Z,84.00
2023-02-22T00:29:59.769Z,84.02
2023-02-22T00:35:06.875Z,84.33
2023-02-22T00:40:14.658Z,84.24
2023-02-22T00:45:19.036Z,84.11
2023-02-22T00:50:20.867Z,84.16
2023-02-22T00:55:27.960Z,84.09
2023-02-22T01:00:36.321Z,84.34
2023-02-22T01:05:40.815Z,84.97
2023-02-22T01:10:43.263Z,84.43
2023-02-22T01:15:45.181Z,84.89
2023-02-22T01:20:47.878Z,85.10
2023-02-22T01:25:50.105Z,85.08
2023-02-22T01:30:51.866Z,85.33
2023-02-22T01:35:53.518Z,85.12
2023-02-22T01:40:54.973Z,85.34
2023-02-22T01:46:04.073Z,85.24
2023-02-22T01:51:11.978Z,84.99
2023-02-22T01:56:14.686Z,85.39
2023-02-22T02:01:18.063Z,85.28
2023-02-22T02:06:20.477Z,85.50
2023-02-22T02:11:25.530Z,85.61
2023-02-22T02:16:36.721Z,85.19
2023-02-22T02:21:44.267Z,85.78
2023-02-22T02:26:56.729Z,85.26
2023-02-22T02:32:09.978Z,85.23
2023-02-22T02:37:31.370Z,86.33
2023-02-22T02:42:43.397Z,85.58
2023-02-22T02:47:51.306Z,86.39
2023-02-22T02:52:56.756Z,86.74
2023-02-22T02:57:59.288Z,85.56
2023-02-22T03:03:21.128Z,85.93
2023-02-22T03:08:41.959Z,85.96
2023-02-22T03:14:17.660Z,85.65
2023-02-22T03:19:26.957Z,85.81
2023-02-22T03:25:10.279Z,86.15
2023-02-22T03:30:24.082Z,86.44
2023-02-22T03:35:30.527Z,85.97
2023-02-22T03:40:36.350Z,85.09
2023-02-22T03:45:43.334Z,85.43
2023-02-22T03:50:45.378Z,85.94
2023-02-22T03:55:52.758Z,85.18
2023-02-22T04:00:57.516Z,84.66
2023-02-22T04:05:59.078Z,85.88
2023-02-22T04:11:01.538Z,86.19
2023-02-22T04:16:05.421Z,86.19
2023-02-22T04:21:09.001Z,86.09
2023-02-22T04:26:15.906Z,85.54
2023-02-22T04:31:21.556Z,85.32
2023-02-22T04:36:24.562Z,85.38
2023-02-22T04:41:28.102Z,85.74
2023-02-22T04:46:29.729Z,85.95
2023-02-22T04:51:31.376Z,86.31
2023-02-22T04:56:40.344Z,86.29
2023-02-22T05:01:41.836Z,86.82
2023-02-22T05:06:44.926Z,86.81
2023-02-22T05:11:46.758Z,86.74
2023-02-22T05:16:49.766Z,87.11
2023-02-22T05:21:51.185Z,88.27
2023-02-22T05:26:53.192Z,87.43
2023-02-22T05:31:54.744Z,87.60
2023-02-22T05:36:56.569Z,87.57
2023-02-22T05:41:58.282Z,86.97
2023-02-22T05:46:59.706Z,86.90
2023-02-22T05:52:01.169Z,87.50
2023-02-22T05:57:02.617Z,88.03
2023-02-22T06:02:04.171Z,87.13
2023-02-22T06:07:06.410Z,87.20
2023-02-22T06:12:08.851Z,87.74
2023-02-22T06:17:10.249Z,87.23
2023-02-22T06:22:18.289Z,87.34
2023-02-22T06:27:19.740Z,87.18
2023-02-22T06:32:21.237Z,87.17
2023-02-22T06:37:22.781Z,88.21
2023-02-22T06:42:24.226Z,88.03
2023-02-22T06:47:25.734Z,87.76
2023-02-22T06:52:27.370Z,87.83
2023-02-22T06:57:28.764Z,87.89
2023-02-22T07:02:30.194Z,88.05
2023-02-22T07:07:31.714Z,88.29
2023-02-22T07:12:33.210Z,88.47
2023-02-22T07:17:34.609Z,88.07
2023-02-22T07:22:35.994Z,88.74
2023-02-22T07:27:38.905Z,88.56
2023-02-22T07:32:42.039Z,89.07
2023-02-22T07:37:44.261Z,89.36
2023-02-22T07:43:01.058Z,88.59
2023-02-22T07:48:04.496Z,89.10
2023-02-22T07:53:11.579Z,88.58
2023-02-22T07:58:15.172Z,89.35
2023-02-22T08:03:19.124Z,89.01
2023-02-22T08:08:20.992Z,89.40
2023-02-22T08:13:23.205Z,88.77
2023-02-22T08:18:25.493Z,88.88
2023-02-22T08:23:27.282Z,89.01
2023-02-22T08:28:28.720Z,88.93
2023-02-22T08:33:30.140Z,88.81
2023-02-22T08:38:33.891Z,89.21
2023-02-22T08:43:35.336Z,89.24
2023-02-22T08:48:36.783Z,88.86
2023-02-22T08:53:38.182Z,88.87
2023-02-22T08:58:39.604Z,88.64
2023-02-22T09:03:41.093Z,88.43
2023-02-22T09:08:42.522Z,88.24
2023-02-22T09:13:44.083Z,87.89
2023-02-22T09:18:45.552Z,87.77
2023-02-22T09:23:47.665Z,87.97
2023-02-22T09:28:50.154Z,87.46
2023-02-22T09:33:52.026Z,87.59
2023-02-22T09:38:53.473Z,87.27
2023-02-22T09:44:15.349Z,86.70
2023-02-22T09:49:39.128Z,86.50
2023-02-22T09:54:45.025Z,87.17
2023-02-22T10:00:15.693Z,86.17
2023-02-22T10:05:39.515Z,86.44
2023-02-22T10:10:46.736Z,85.87
2023-02-22T10:16:00.545Z,85.33
2023-02-22T10:21:24.852Z,85.52
2023-02-22T10:26:30.714Z,85.46
2023-02-22T10:31:37.770Z,85.05
2023-02-22T10:36:39.297Z,84.91
2023-02-22T10:41:48.902Z,84.54
2023-02-22T10:46:53.350Z,84.60
2023-02-22T10:52:00.981Z,83.35
2023-02-22T10:57:03.917Z,83.81
2023-02-22T11:02:33.610Z,82.73
2023-02-22T11:07:36.618Z,83.07
2023-02-22T11:12:41.219Z,83.05
2023-02-22T11:17:44.769Z,83.36
2023-02-22T11:22:46.334Z,82.71
2023-02-22T11:27:48.302Z,82.30
2023-02-22T11:32:54.409Z,82.27
2023-02-22T11:38:16.305Z,81.63
2023-02-22T11:43:20.301Z,82.13
2023-02-22T11:48:23.137Z,82.11
2023-02-22T11:53:39.790Z,80.79
2023-02-22T11:58:47.599Z,81.24
2023-02-22T12:04:28.167Z,80.62
2023-02-22T12:09:48.139Z,80.61
2023-02-22T12:15:02.866Z,80.65
2023-02-22T12:20:10.271Z,81.02
2023-02-22T12:25:22.913Z,80.73
2023-02-22T12:30:26.729Z,81.08
2023-02-22T12:35:34.822Z,80.80
2023-02-22T12:41:08.682Z,80.10
2023-02-22T12:46:22.784Z,80.32
2023-02-22T12:51:38.862Z,80.02
2023-02-22T12:56:55.599Z,80.44
2023-02-22T13:02:18.812Z,80.40
2023-02-22T13:07:26.470Z,80.17
2023-02-22T13:12:39.292Z,79.49
2023-02-22T13:18:10.627Z,79.45
2023-02-22T13:23:36.253Z,79.70
2023-02-22T13:28:46.931Z,80.09
2023-02-22T13:33:51.613Z,80.06
2023-02-22T13:39:12.250Z,80.15
2023-02-22T13:44:19.727Z,80.67
2023-02-22T13:49:39.052Z,80.01
2023-02-22T13:54:46.637Z,80.70
2023-02-22T13:59:48.285Z,80.98
2023-02-22T14:04:49.817Z,80.90
2023-02-22T14:09:53.491Z,80.46
2023-02-22T14:15:28.600Z,79.96
2023-02-22T14:20:35.930Z,80.77
2023-02-22T14:25:41.299Z,80.31
2023-02-22T14:30:42.898Z,80.89
2023-02-22T14:35:49.908Z,80.69
2023-02-22T14:41:03.321Z,80.15
2023-02-22T14:46:07.084Z,80.04
2023-02-22T14:51:31.231Z,79.91
2023-02-22T14:56:55.562Z,79.57
2023-02-22T15:02:11.982Z,79.72
2023-02-22T15:07:27.076Z,79.60
2023-02-22T15:12:31.424Z,80.82
2023-02-22T15:17:33.457Z,80.73
2023-02-22T15:22:36.754Z,80.41
2023-02-22T15:27:47.714Z,79.86
2023-02-22T15:33:03.240Z,80.78
2023-02-22T15:38:12.879Z,80.62
2023-02-22T15:43:24.056Z,80.61
2023-02-22T15:48:27.909Z,81.12
2023-02-22T15:53:40.271Z,81.15
2023-02-22T15:58:44.048Z,80.94
2023-02-22T16:03:55.430Z,80.94
2023-02-22T16:08:59.868Z,81.43
2023-02-22T16:14:04.726Z,81.24
2023-02-22T16:19:24.726Z,81.19
2023-02-22T16:24:28.504Z,81.76
2023-02-22T16:29:30.410Z,81.55
2023-02-22T16:34:32.117Z,82.21
2023-02-22T16:39:35.940Z,82.18
2023-02-22T16:44:37.364Z,82.22
2023-02-22T16:49:38.791Z,82.82
2023-02-22T16:54:45.030Z,82.75
2023-02-22T16:59:50.123Z,83.04
2023-02-22T17:04:51.650Z,83.12
2023-02-22T17:09:53.201Z,83.50
2023-02-22T17:14:54.698Z,83.59
2023-02-22T17:19:56.146Z,83.65
2023-02-22T17:24:57.650Z,83.39
2023-02-22T17:29:59.225Z,83.72
2023-02-22T17:35:00.664Z,83.79
2023-02-22T17:40:02.131Z,83.78
2023-02-22T17:45:03.764Z,84.45
2023-02-22T17:50:05.584Z,84.35
2023-02-22T17:55:07.475Z,84.08
2023-02-22T18:00:13.344Z,84.16
2023-02-22T18:05:17.713Z,83.88
2023-02-22T18:10:20.639Z,83.79
2023-02-22T18:15:22.155Z,85.11
2023-02-22T18:20:43.786Z,85.22
2023-02-22T18:26:07.633Z,85.15
2023-02-22T18:31:15.864Z,85.14
2023-02-22T18:36:28.397Z,85.18
2023-02-22T18:41:29.906Z,84.78
2023-02-22T18:46:31.389Z,84.90
2023-02-22T18:51:32.794Z,85.14
2023-02-22T18:56:34.283Z,85.11
2023-02-22T19:01:38.514Z,84.81
2023-02-22T19:06:41.300Z,84.99
2023-02-22T19:11:47.013Z,84.70
2023-02-22T19:16:49.955Z,84.62
2023-02-22T19:21:52.110Z,85.03
2023-02-22T19:26:57.406Z,84.80
2023-02-22T19:32:00.511Z,85.36
2023-02-22T19:37:05.100Z,85.54
2023-02-22T19:42:09.536Z,85.20
2023-02-22T19:47:11.084Z,85.45
2023-02-22T19:52:12.900Z,85.12
2023-02-22T19:57:14.605Z,85.61
2023-02-22T20:02:16.166Z,84.95
2023-02-22T20:07:17.944Z,85.24
2023-02-22T20:12:19.670Z,85.90
2023-02-22T20:17:21.337Z,85.98
2023-02-22T20:22:22.848Z,85.92
2023-02-22T20:27:24.477Z,85.80
2023-02-22T20:32:28.431Z,85.60
2023-02-22T20:37:33.308Z,86.38
2023-02-22T20:42:34.771Z,86.17
2023-02-22T20:47:36.390Z,85.82
2023-02-22T20:52:38.133Z,85.94
2023-02-22T20:57:40.155Z,85.64
2023-02-22T21:02:41.843Z,86.62
2023-02-22T21:07:43.364Z,86.10
2023-02-22T21:12:47.745Z,86.59
2023-02-22T21:17:49.303Z,86.25
2023-02-22T21:22:52.579Z,85.88
2023-02-22T21:27:54.192Z,86.58
2023-02-22T21:32:56.711Z,86.54
2023-02-22T21:37:58.194Z,87.02
2023-02-22T21:42:59.942Z,86.69
2023-02-22T21:48:01.498Z,86.07
2023-02-22T21:53:03.135Z,86.50
2023-02-22T21:58:05.855Z,86.26
2023-02-22T22:03:20.316Z,87.22
2023-02-22T22:08:22.019Z,86.38
2023-02-22T22:13:28.064Z,86.91
2023-02-22T22:18:29.535Z,87.30
2023-02-22T22:23:30.964Z,87.00
2023-02-22T22:28:32.438Z,87.30
2023-02-22T22:33:35.130Z,86.83
2023-02-22T22:38:40.335Z,87.43
2023-02-22T22:43:45.878Z,87.40
2023-02-22T22:48:47.525Z,87.43
2023-02-22T22:53:50.375Z,86.62
2023-02-22T22:58:54.420Z,87.04
2023-02-22T23:04:01.549Z,86.90
2023-02-22T23:09:11.671Z,86.28
2023-02-22T23:14:22.065Z,86.58
2023-02-22T23:19:24.105Z,86.50
2023-02-22T23:24:29.280Z,87.06
2023-02-22T23:29:30.718Z,86.70
2023-02-22T23:34:33.017Z,86.59
2023-02-22T23:39:34.422Z,86.47
2023-02-22T23:44:36.208Z,86.70
2023-02-22T23:49:38.358Z,86.76
2023-02-22T23:54:43.658Z,86.85
2023-02-22T23:59:46.299Z,86.43
